»·PEaware :: N653AW KLAS-KONT

N653AW :: KLAS-KONT

FLIGHT INFORMATION

Flight Status: Arrived
Operator: Privately registered:
United States
More flights under this callsign
Pilot: Sergei F. (8485)
Aircraft: AIRBUS A320
(A320)
More flights by this aircraft type
Origin: KLAS McCarran Intl
United States
Destination: KONT Ontario Intl
United States
More flights between these airports :: More routes between these airports
Route: +BOACH8 HEC ZIGGY7
File this flight plan on PilotEdge
Remarks:
Altitude:
(Current/Filed)
260ft
Speed:
(Current/Filed)
400kts
Departed: 27-Sep-19 09:02 PM
Arrived: 27-Sep-19 09:43 PM
Distance/Time
Traveled:
171nm/0:40
Distance/Time
To Go:
Arrived

Flight Plot

Page will automatically refresh every two minutes.


Map Options




Map Legend


Flown Route
Filed Route
Departure Airport
Arrival Airport
Navaid (VOR, NDB)
Fix

Horizontal Profiles

Position Reports

Time Latitude Longitude Heading Altitude Ground
Speed
27-Sep-19 20:46 36.088545 -115.153936 357 2103ft 0kts
27-Sep-19 20:47 36.088545 -115.153936 357 2103ft 0kts
27-Sep-19 20:48 36.088545 -115.153936 357 2103ft 0kts
27-Sep-19 20:49 36.088545 -115.153936 357 2103ft 0kts
27-Sep-19 20:50 36.088545 -115.153936 357 2103ft 0kts
27-Sep-19 20:51 36.088545 -115.153936 357 2103ft 0kts
27-Sep-19 20:52 36.088546 -115.153936 357 2103ft 0kts
27-Sep-19 20:53 36.088546 -115.153936 357 2103ft 0kts
27-Sep-19 20:54 36.088586 -115.153952 338 2103ft 1kts
27-Sep-19 20:55 36.088988 -115.154245 317 2103ft 0kts
27-Sep-19 20:56 36.089745 -115.155008 1 2103ft 10kts
27-Sep-19 20:57 36.091641 -115.155001 0 2099ft 12kts
27-Sep-19 20:58 36.095632 -115.153020 23 2085ft 17kts
27-Sep-19 20:59 36.097856 -115.152223 316 2080ft 7kts
27-Sep-19 21:00 36.098244 -115.153394 286 2083ft 4kts
27-Sep-19 21:01 36.090427 -115.158227 204 2114ft 127kts
27-Sep-19 21:02 36.045962 -115.183772 206 4479ft 193kts
27-Sep-19 21:03 36.000936 -115.233635 241 6556ft 265kts
27-Sep-19 21:04 35.955292 -115.303172 193 7138ft 277kts
27-Sep-19 21:05 35.879020 -115.312775 186 9917ft 289kts
27-Sep-19 21:06 35.789585 -115.307582 176 11462ft 357kts
27-Sep-19 21:07 35.685070 -115.304625 200 13003ft 389kts
27-Sep-19 21:08 35.604940 -115.393652 228 15116ft 397kts
27-Sep-19 21:09 35.532800 -115.490331 228 18453ft 371kts
27-Sep-19 21:10 35.463997 -115.582461 228 21043ft 369kts
27-Sep-19 21:11 35.394476 -115.675364 228 22997ft 379kts
27-Sep-19 21:12 35.322303 -115.771492 228 24795ft 388kts
27-Sep-19 21:13 35.248511 -115.869480 228 25807ft 398kts
27-Sep-19 21:14 35.169487 -115.974210 228 25803ft 442kts
27-Sep-19 21:15 35.084334 -116.086520 228 25807ft 451kts
27-Sep-19 21:16 34.999562 -116.197888 228 25566ft 441kts
27-Sep-19 21:17 34.917126 -116.306062 228 23860ft 440kts
27-Sep-19 21:18 34.834484 -116.414139 228 23814ft 439kts
27-Sep-19 21:19 34.751763 -116.518669 227 23830ft 403kts
27-Sep-19 21:20 34.679494 -116.607412 227 23825ft 338kts
27-Sep-19 21:21 34.619292 -116.681339 227 23182ft 301kts
27-Sep-19 21:22 34.561811 -116.751824 227 22001ft 286kts
27-Sep-19 21:23 34.506577 -116.819397 227 20607ft 280kts
27-Sep-19 21:24 34.452247 -116.885684 227 19235ft 275kts
27-Sep-19 21:25 34.399358 -116.950069 227 17926ft 269kts
27-Sep-19 21:26 34.347172 -117.013471 228 16644ft 263kts
27-Sep-19 21:27 34.296480 -117.074947 228 15390ft 258kts
27-Sep-19 21:28 34.246951 -117.134919 229 14016ft 254kts
27-Sep-19 21:29 34.199572 -117.191578 219 12303ft 249kts
27-Sep-19 21:30 34.136682 -117.184806 162 11135ft 240kts
27-Sep-19 21:31 34.083628 -117.159686 162 9662ft 218kts
27-Sep-19 21:32 34.036498 -117.139959 186 8162ft 201kts
27-Sep-19 21:33 34.020135 -117.176763 291 6659ft 178kts
27-Sep-19 21:34 34.039512 -117.231882 293 5234ft 175kts
27-Sep-19 21:35 34.056949 -117.289927 275 4334ft 178kts
27-Sep-19 21:36 34.057340 -117.352776 270 4325ft 175kts
27-Sep-19 21:37 34.057167 -117.409989 270 3710ft 162kts
27-Sep-19 21:38 34.057086 -117.458753 270 2925ft 135kts
27-Sep-19 21:39 34.056979 -117.503989 270 2228ft 134kts
27-Sep-19 21:40 34.056887 -117.548766 270 1496ft 133kts
27-Sep-19 21:41 34.056898 -117.591577 271 932ft 116kts
27-Sep-19 21:42 34.057013 -117.606954 286 939ft 14kts
27-Sep-19 21:43 34.057808 -117.608160 316 942ft 2kts
27-Sep-19 21:44 34.057916 -117.608280 321 943ft 2kts
27-Sep-19 21:45 34.059472 -117.606938 43 946ft 10kts
27-Sep-19 21:46 34.060099 -117.607215 314 948ft 0kts
27-Sep-19 21:47 34.060099 -117.607215 314 948ft 0kts
27-Sep-19 21:48 34.060099 -117.607215 314 948ft 0kts

Navigation Log

Ident Type
Flight plan parsing failed, navigation log unavailable